sensor_id;sensor_type;location;lat;lon;timestamp;temperature;humidity
26053;DHT22;13826;51.186;4.450;2022-07-06T00:00:05;16.30;99.90
26053;DHT22;13826;51.186;4.450;2022-07-06T00:02:31;16.30;99.90
26053;DHT22;13826;51.186;4.450;2022-07-06T00:04:57;16.20;99.90
26053;DHT22;13826;51.186;4.450;2022-07-06T00:07:23;16.20;99.90
26053;DHT22;13826;51.186;4.450;2022-07-06T00:09:49;16.30;99.90
26053;DHT22;13826;51.186;4.450;2022-07-06T00:12:15;16.10;99.90
26053;DHT22;13826;51.186;4.450;2022-07-06T00:14:41;16.10;99.90
26053;DHT22;13826;51.186;4.450;2022-07-06T00:17:07;16.00;1.00
26053;DHT22;13826;51.186;4.450;2022-07-06T00:19:32;15.90;1.00
26053;DHT22;13826;51.186;4.450;2022-07-06T00:21:58;15.80;46.90
26053;DHT22;13826;51.186;4.450;2022-07-06T00:24:24;15.70;99.90
26053;DHT22;13826;51.186;4.450;2022-07-06T00:26:50;15.70;99.90
26053;DHT22;13826;51.186;4.450;2022-07-06T00:29:15;15.50;99.90
26053;DHT22;13826;51.186;4.450;2022-07-06T00:31:41;15.50;99.90
26053;DHT22;13826;51.186;4.450;2022-07-06T00:34:07;15.50;99.90
26053;DHT22;13826;51.186;4.450;2022-07-06T00:36:32;15.50;99.90
26053;DHT22;13826;51.186;4.450;2022-07-06T00:38:58;15.50;99.90
26053;DHT22;13826;51.186;4.450;2022-07-06T00:41:24;15.40;99.90
26053;DHT22;13826;51.186;4.450;2022-07-06T00:43:51;15.40;99.90
26053;DHT22;13826;51.186;4.450;2022-07-06T00:46:18;15.40;99.90
26053;DHT22;13826;51.186;4.450;2022-07-06T00:48:43;15.50;99.90
26053;DHT22;13826;51.186;4.450;2022-07-06T00:51:10;15.50;99.90
26053;DHT22;13826;51.186;4.450;2022-07-06T00:53:37;15.50;99.90
26053;DHT22;13826;51.186;4.450;2022-07-06T00:56:03;15.40;99.90
26053;DHT22;13826;51.186;4.450;2022-07-06T00:58:28;15.50;99.90
26053;DHT22;13826;51.186;4.450;2022-07-06T01:00:54;15.60;99.90
26053;DHT22;13826;51.186;4.450;2022-07-06T01:03:20;15.50;99.90
26053;DHT22;13826;51.186;4.450;2022-07-06T01:05:45;15.40;99.90
26053;DHT22;13826;51.186;4.450;2022-07-06T01:08:12;15.40;99.90
26053;DHT22;13826;51.186;4.450;2022-07-06T01:10:37;15.40;99.90
26053;DHT22;13826;51.186;4.450;2022-07-06T01:13:03;15.40;99.90
26053;DHT22;13826;51.186;4.450;2022-07-06T01:15:29;15.30;1.00
26053;DHT22;13826;51.186;4.450;2022-07-06T01:17:55;15.30;1.00
26053;DHT22;13826;51.186;4.450;2022-07-06T01:20:23;15.20;1.00
26053;DHT22;13826;51.186;4.450;2022-07-06T01:22:51;15.30;1.00
26053;DHT22;13826;51.186;4.450;2022-07-06T01:25:19;15.40;99.90
26053;DHT22;13826;51.186;4.450;2022-07-06T01:27:45;15.30;99.90
26053;DHT22;13826;51.186;4.450;2022-07-06T01:30:16;15.20;1.00
26053;DHT22;13826;51.186;4.450;2022-07-06T01:32:43;15.20;1.00
26053;DHT22;13826;51.186;4.450;2022-07-06T01:35:11;15.10;1.00
26053;DHT22;13826;51.186;4.450;2022-07-06T01:37:37;15.20;1.00
26053;DHT22;13826;51.186;4.450;2022-07-06T01:40:05;15.10;1.00
26053;DHT22;13826;51.186;4.450;2022-07-06T01:42:31;15.10;1.00
26053;DHT22;13826;51.186;4.450;2022-07-06T01:44:57;15.10;1.00
26053;DHT22;13826;51.186;4.450;2022-07-06T01:47:23;15.00;1.00
26053;DHT22;13826;51.186;4.450;2022-07-06T01:49:48;14.90;1.00
26053;DHT22;13826;51.186;4.450;2022-07-06T01:52:14;14.90;1.00
26053;DHT22;13826;51.186;4.450;2022-07-06T01:54:40;14.90;1.00
26053;DHT22;13826;51.186;4.450;2022-07-06T01:57:06;14.90;1.00
26053;DHT22;13826;51.186;4.450;2022-07-06T01:59:32;14.80;1.00
26053;DHT22;13826;51.186;4.450;2022-07-06T02:01:58;14.90;1.00
26053;DHT22;13826;51.186;4.450;2022-07-06T02:04:24;15.00;1.00
26053;DHT22;13826;51.186;4.450;2022-07-06T02:06:49;14.90;1.00
26053;DHT22;13826;51.186;4.450;2022-07-06T02:09:15;15.00;1.00
26053;DHT22;13826;51.186;4.450;2022-07-06T02:11:42;14.90;1.00
26053;DHT22;13826;51.186;4.450;2022-07-06T02:14:07;15.00;1.00
26053;DHT22;13826;51.186;4.450;2022-07-06T02:16:33;15.00;1.00
26053;DHT22;13826;51.186;4.450;2022-07-06T02:18:59;14.90;1.00
26053;DHT22;13826;51.186;4.450;2022-07-06T02:21:25;14.90;1.00
26053;DHT22;13826;51.186;4.450;2022-07-06T02:23:50;14.90;1.00
26053;DHT22;13826;51.186;4.450;2022-07-06T02:26:16;15.10;1.00
26053;DHT22;13826;51.186;4.450;2022-07-06T02:28:41;15.40;1.00
26053;DHT22;13826;51.186;4.450;2022-07-06T02:31:07;15.60;1.00
26053;DHT22;13826;51.186;4.450;2022-07-06T02:33:33;15.60;99.90
26053;DHT22;13826;51.186;4.450;2022-07-06T02:35:58;15.60;99.90
26053;DHT22;13826;51.186;4.450;2022-07-06T02:38:24;15.70;99.90
26053;DHT22;13826;51.186;4.450;2022-07-06T02:40:50;15.70;99.90
26053;DHT22;13826;51.186;4.450;2022-07-06T02:43:15;15.80;99.90
26053;DHT22;13826;51.186;4.450;2022-07-06T02:45:41;15.80;99.90
26053;DHT22;13826;51.186;4.450;2022-07-06T02:48:07;15.70;99.90
26053;DHT22;13826;51.186;4.450;2022-07-06T02:50:32;15.60;99.90
26053;DHT22;13826;51.186;4.450;2022-07-06T02:52:58;15.50;99.90
26053;DHT22;13826;51.186;4.450;2022-07-06T02:55:24;15.50;99.90
26053;DHT22;13826;51.186;4.450;2022-07-06T02:57:50;15.60;99.90
26053;DHT22;13826;51.186;4.450;2022-07-06T03:00:15;15.70;99.90
26053;DHT22;13826;51.186;4.450;2022-07-06T03:02:42;15.80;99.90
26053;DHT22;13826;51.186;4.450;2022-07-06T03:05:08;16.00;99.90
26053;DHT22;13826;51.186;4.450;2022-07-06T03:07:34;16.20;99.90
26053;DHT22;13826;51.186;4.450;2022-07-06T03:09:59;16.10;99.90
26053;DHT22;13826;51.186;4.450;2022-07-06T03:12:25;16.10;99.90
26053;DHT22;13826;51.186;4.450;2022-07-06T03:14:51;16.10;99.90
26053;DHT22;13826;51.186;4.450;2022-07-06T03:17:16;16.10;99.90
26053;DHT22;13826;51.186;4.450;2022-07-06T03:19:42;16.20;53.80
26053;DHT22;13826;51.186;4.450;2022-07-06T03:22:08;16.10;99.90
26053;DHT22;13826;51.186;4.450;2022-07-06T03:24:33;15.90;99.90
26053;DHT22;13826;51.186;4.450;2022-07-06T03:26:59;15.70;99.90
26053;DHT22;13826;51.186;4.450;2022-07-06T03:29:24;15.80;99.90
26053;DHT22;13826;51.186;4.450;2022-07-06T03:31:50;15.80;99.90
26053;DHT22;13826;51.186;4.450;2022-07-06T03:34:16;15.70;99.90
26053;DHT22;13826;51.186;4.450;2022-07-06T03:36:41;15.70;99.90
26053;DHT22;13826;51.186;4.450;2022-07-06T03:39:07;15.60;99.90
26053;DHT22;13826;51.186;4.450;2022-07-06T03:41:33;15.60;99.90
26053;DHT22;13826;51.186;4.450;2022-07-06T03:43:59;15.50;99.90
26053;DHT22;13826;51.186;4.450;2022-07-06T03:46:25;15.50;1.00
26053;DHT22;13826;51.186;4.450;2022-07-06T03:48:51;15.40;1.00
26053;DHT22;13826;51.186;4.450;2022-07-06T03:51:16;15.40;1.00
26053;DHT22;13826;51.186;4.450;2022-07-06T03:53:42;15.40;1.00
26053;DHT22;13826;51.186;4.450;2022-07-06T03:56:08;15.50;1.00
26053;DHT22;13826;51.186;4.450;2022-07-06T03:58:53;15.60;99.90
26053;DHT22;13826;51.186;4.450;2022-07-06T04:01:18;15.70;99.90
26053;DHT22;13826;51.186;4.450;2022-07-06T04:03:44;15.70;99.90
26053;DHT22;13826;51.186;4.450;2022-07-06T04:06:10;15.70;99.90
26053;DHT22;13826;51.186;4.450;2022-07-06T04:08:36;15.80;99.90
26053;DHT22;13826;51.186;4.450;2022-07-06T04:11:02;15.90;99.90
26053;DHT22;13826;51.186;4.450;2022-07-06T04:13:28;16.00;99.90
26053;DHT22;13826;51.186;4.450;2022-07-06T04:15:53;16.00;99.90
26053;DHT22;13826;51.186;4.450;2022-07-06T04:18:19;16.00;99.90
26053;DHT22;13826;51.186;4.450;2022-07-06T04:20:45;15.90;99.90
26053;DHT22;13826;51.186;4.450;2022-07-06T04:23:11;15.80;99.90
26053;DHT22;13826;51.186;4.450;2022-07-06T04:25:36;15.90;99.90
26053;DHT22;13826;51.186;4.450;2022-07-06T04:28:02;15.80;99.90
26053;DHT22;13826;51.186;4.450;2022-07-06T04:30:28;15.90;99.90
26053;DHT22;13826;51.186;4.450;2022-07-06T04:32:54;15.90;99.90
26053;DHT22;13826;51.186;4.450;2022-07-06T04:35:21;15.90;99.90
26053;DHT22;13826;51.186;4.450;2022-07-06T04:37:46;15.90;99.90
26053;DHT22;13826;51.186;4.450;2022-07-06T04:40:13;16.00;99.90
26053;DHT22;13826;51.186;4.450;2022-07-06T04:42:38;16.10;99.90
26053;DHT22;13826;51.186;4.450;2022-07-06T04:45:05;16.30;99.90
26053;DHT22;13826;51.186;4.450;2022-07-06T04:47:31;16.20;99.90
26053;DHT22;13826;51.186;4.450;2022-07-06T04:49:57;16.20;99.90
26053;DHT22;13826;51.186;4.450;2022-07-06T04:52:22;16.20;99.90
26053;DHT22;13826;51.186;4.450;2022-07-06T04:54:48;16.30;99.90
26053;DHT22;13826;51.186;4.450;2022-07-06T04:57:14;16.50;99.90
26053;DHT22;13826;51.186;4.450;2022-07-06T04:59:40;16.70;1.00
26053;DHT22;13826;51.186;4.450;2022-07-06T05:02:05;16.80;1.00
26053;DHT22;13826;51.186;4.450;2022-07-06T05:04:31;17.00;1.00
26053;DHT22;13826;51.186;4.450;2022-07-06T05:06:57;17.00;99.90
26053;DHT22;13826;51.186;4.450;2022-07-06T05:09:23;17.20;99.90
26053;DHT22;13826;51.186;4.450;2022-07-06T05:11:48;17.50;1.00
26053;DHT22;13826;51.186;4.450;2022-07-06T05:14:14;17.50;99.90
26053;DHT22;13826;51.186;4.450;2022-07-06T05:16:39;17.70;99.90
26053;DHT22;13826;51.186;4.450;2022-07-06T05:19:05;18.70;1.00
26053;DHT22;13826;51.186;4.450;2022-07-06T05:21:31;19.80;99.90
26053;DHT22;13826;51.186;4.450;2022-07-06T05:23:56;20.70;1.00
26053;DHT22;13826;51.186;4.450;2022-07-06T05:26:22;21.70;99.90
26053;DHT22;13826;51.186;4.450;2022-07-06T05:28:48;22.30;99.90
26053;DHT22;13826;51.186;4.450;2022-07-06T05:31:13;22.70;98.50
26053;DHT22;13826;51.186;4.450;2022-07-06T05:33:39;23.30;18.80
26053;DHT22;13826;51.186;4.450;2022-07-06T05:36:05;24.10;1.00
26053;DHT22;13826;51.186;4.450;2022-07-06T05:38:31;24.00;1.00
26053;DHT22;13826;51.186;4.450;2022-07-06T05:40:56;24.70;1.00
26053;DHT22;13826;51.186;4.450;2022-07-06T05:43:22;24.40;1.00
26053;DHT22;13826;51.186;4.450;2022-07-06T05:45:47;23.80;1.00
26053;DHT22;13826;51.186;4.450;2022-07-06T05:48:13;22.70;1.00
26053;DHT22;13826;51.186;4.450;2022-07-06T05:50:58;23.10;1.00
26053;DHT22;13826;51.186;4.450;2022-07-06T05:53:23;24.50;1.00
26053;DHT22;13826;51.186;4.450;2022-07-06T05:55:49;25.90;1.00
26053;DHT22;13826;51.186;4.450;2022-07-06T05:58:15;27.30;1.00
26053;DHT22;13826;51.186;4.450;2022-07-06T06:00:40;28.50;1.00
26053;DHT22;13826;51.186;4.450;2022-07-06T06:03:06;28.70;1.00
26053;DHT22;13826;51.186;4.450;2022-07-06T06:05:32;28.90;1.00
26053;DHT22;13826;51.186;4.450;2022-07-06T06:07:57;29.20;1.00
26053;DHT22;13826;51.186;4.450;2022-07-06T06:10:23;29.70;1.00
26053;DHT22;13826;51.186;4.450;2022-07-06T06:12:50;30.70;1.00
26053;DHT22;13826;51.186;4.450;2022-07-06T06:15:16;31.60;1.00
26053;DHT22;13826;51.186;4.450;2022-07-06T06:17:42;31.30;1.00
26053;DHT22;13826;51.186;4.450;2022-07-06T06:20:10;30.50;1.00
26053;DHT22;13826;51.186;4.450;2022-07-06T06:22:57;29.40;1.00
26053;DHT22;13826;51.186;4.450;2022-07-06T06:25:37;29.10;1.00
26053;DHT22;13826;51.186;4.450;2022-07-06T06:28:04;28.70;1.00
26053;DHT22;13826;51.186;4.450;2022-07-06T06:30:30;28.40;1.00
26053;DHT22;13826;51.186;4.450;2022-07-06T06:33:12;28.10;1.00
26053;DHT22;13826;51.186;4.450;2022-07-06T06:35:41;27.00;1.00
26053;DHT22;13826;51.186;4.450;2022-07-06T06:38:08;26.70;1.00
26053;DHT22;13826;51.186;4.450;2022-07-06T06:40:34;26.60;1.00
26053;DHT22;13826;51.186;4.450;2022-07-06T06:42:59;27.70;1.00
26053;DHT22;13826;51.186;4.450;2022-07-06T06:45:25;28.80;1.00
26053;DHT22;13826;51.186;4.450;2022-07-06T06:47:51;29.90;1.00
26053;DHT22;13826;51.186;4.450;2022-07-06T06:50:16;30.70;1.00
26053;DHT22;13826;51.186;4.450;2022-07-06T06:52:42;30.90;1.00
26053;DHT22;13826;51.186;4.450;2022-07-06T06:55:08;31.00;1.00
26053;DHT22;13826;51.186;4.450;2022-07-06T06:57:34;31.60;1.00
26053;DHT22;13826;51.186;4.450;2022-07-06T06:59:59;31.90;1.00
26053;DHT22;13826;51.186;4.450;2022-07-06T07:02:25;32.00;1.00
26053;DHT22;13826;51.186;4.450;2022-07-06T07:04:51;32.00;1.00
26053;DHT22;13826;51.186;4.450;2022-07-06T07:07:17;31.90;1.00
26053;DHT22;13826;51.186;4.450;2022-07-06T07:09:45;31.90;1.00
26053;DHT22;13826;51.186;4.450;2022-07-06T07:12:11;32.60;1.00
26053;DHT22;13826;51.186;4.450;2022-07-06T07:14:37;32.90;1.00
26053;DHT22;13826;51.186;4.450;2022-07-06T07:17:03;32.80;1.00
26053;DHT22;13826;51.186;4.450;2022-07-06T07:19:29;32.80;1.00
26053;DHT22;13826;51.186;4.450;2022-07-06T07:21:55;32.70;1.00
26053;DHT22;13826;51.186;4.450;2022-07-06T07:24:20;32.60;1.00
26053;DHT22;13826;51.186;4.450;2022-07-06T07:26:46;32.70;1.00
26053;DHT22;13826;51.186;4.450;2022-07-06T07:29:11;31.00;1.00
26053;DHT22;13826;51.186;4.450;2022-07-06T07:31:37;32.10;1.00
26053;DHT22;13826;51.186;4.450;2022-07-06T07:34:03;33.20;1.00
26053;DHT22;13826;51.186;4.450;2022-07-06T07:36:28;33.40;1.00
26053;DHT22;13826;51.186;4.450;2022-07-06T07:38:54;32.30;1.00
26053;DHT22;13826;51.186;4.450;2022-07-06T07:41:20;31.90;1.00
26053;DHT22;13826;51.186;4.450;2022-07-06T07:43:45;32.40;1.00
26053;DHT22;13826;51.186;4.450;2022-07-06T07:46:11;32.80;1.00
26053;DHT22;13826;51.186;4.450;2022-07-06T07:48:37;33.40;1.00
26053;DHT22;13826;51.186;4.450;2022-07-06T07:51:03;31.40;1.00
26053;DHT22;13826;51.186;4.450;2022-07-06T07:53:28;31.70;1.00
26053;DHT22;13826;51.186;4.450;2022-07-06T07:55:54;32.70;1.00
26053;DHT22;13826;51.186;4.450;2022-07-06T07:58:20;32.80;1.00
26053;DHT22;13826;51.186;4.450;2022-07-06T08:00:45;33.40;1.00
26053;DHT22;13826;51.186;4.450;2022-07-06T08:03:12;33.20;1.00
26053;DHT22;13826;51.186;4.450;2022-07-06T08:05:37;33.80;1.00
26053;DHT22;13826;51.186;4.450;2022-07-06T08:08:03;33.50;1.00
26053;DHT22;13826;51.186;4.450;2022-07-06T08:10:30;32.40;1.00
26053;DHT22;13826;51.186;4.450;2022-07-06T08:12:56;33.20;1.00
26053;DHT22;13826;51.186;4.450;2022-07-06T08:15:22;34.10;1.00
26053;DHT22;13826;51.186;4.450;2022-07-06T08:17:47;33.80;1.00
26053;DHT22;13826;51.186;4.450;2022-07-06T08:20:14;34.40;1.00
26053;DHT22;13826;51.186;4.450;2022-07-06T08:22:41;35.00;1.00
26053;DHT22;13826;51.186;4.450;2022-07-06T08:25:07;34.40;1.00
26053;DHT22;13826;51.186;4.450;2022-07-06T08:27:33;33.50;1.00
26053;DHT22;13826;51.186;4.450;2022-07-06T08:29:59;32.50;1.00
26053;DHT22;13826;51.186;4.450;2022-07-06T08:32:26;33.00;1.00
26053;DHT22;13826;51.186;4.450;2022-07-06T08:34:51;34.10;1.00
26053;DHT22;13826;51.186;4.450;2022-07-06T08:37:18;33.90;1.00
26053;DHT22;13826;51.186;4.450;2022-07-06T08:39:44;34.30;1.00
26053;DHT22;13826;51.186;4.450;2022-07-06T08:42:11;34.20;1.00
26053;DHT22;13826;51.186;4.450;2022-07-06T08:44:37;33.20;1.00
26053;DHT22;13826;51.186;4.450;2022-07-06T08:47:07;31.90;1.00
26053;DHT22;13826;51.186;4.450;2022-07-06T08:49:34;30.50;1.00
26053;DHT22;13826;51.186;4.450;2022-07-06T08:52:03;30.50;1.00
26053;DHT22;13826;51.186;4.450;2022-07-06T08:54:29;30.80;1.00
26053;DHT22;13826;51.186;4.450;2022-07-06T08:56:54;30.70;1.00
26053;DHT22;13826;51.186;4.450;2022-07-06T08:59:20;30.80;1.00
26053;DHT22;13826;51.186;4.450;2022-07-06T09:01:46;31.00;1.00
26053;DHT22;13826;51.186;4.450;2022-07-06T09:04:15;31.30;1.00
26053;DHT22;13826;51.186;4.450;2022-07-06T09:06:43;30.80;1.00
26053;DHT22;13826;51.186;4.450;2022-07-06T09:09:14;30.30;1.00
26053;DHT22;13826;51.186;4.450;2022-07-06T09:11:43;28.20;1.00
26053;DHT22;13826;51.186;4.450;2022-07-06T09:14:09;28.40;1.00
26053;DHT22;13826;51.186;4.450;2022-07-06T09:16:35;28.90;1.00
26053;DHT22;13826;51.186;4.450;2022-07-06T09:19:01;29.20;1.00
26053;DHT22;13826;51.186;4.450;2022-07-06T09:21:31;29.80;1.00
26053;DHT22;13826;51.186;4.450;2022-07-06T09:24:06;30.20;1.00
26053;DHT22;13826;51.186;4.450;2022-07-06T09:26:34;29.90;1.00
26053;DHT22;13826;51.186;4.450;2022-07-06T09:29:00;30.40;1.00
26053;DHT22;13826;51.186;4.450;2022-07-06T09:31:26;30.70;1.00
26053;DHT22;13826;51.186;4.450;2022-07-06T09:36:44;31.10;1.00
26053;DHT22;13826;51.186;4.450;2022-07-06T09:41:50;29.60;1.00
26053;DHT22;13826;51.186;4.450;2022-07-06T09:44:30;29.50;1.00
26053;DHT22;13826;51.186;4.450;2022-07-06T09:47:01;29.80;1.00
26053;DHT22;13826;51.186;4.450;2022-07-06T09:49:27;29.90;1.00
26053;DHT22;13826;51.186;4.450;2022-07-06T09:51:56;30.10;1.00
26053;DHT22;13826;51.186;4.450;2022-07-06T09:54:22;30.50;1.00
26053;DHT22;13826;51.186;4.450;2022-07-06T09:56:49;29.40;1.00
26053;DHT22;13826;51.186;4.450;2022-07-06T09:59:29;28.80;1.00
26053;DHT22;13826;51.186;4.450;2022-07-06T10:02:06;28.60;1.00
26053;DHT22;13826;51.186;4.450;2022-07-06T10:04:32;28.50;1.00
26053;DHT22;13826;51.186;4.450;2022-07-06T10:06:59;29.10;1.00
26053;DHT22;13826;51.186;4.450;2022-07-06T10:09:27;31.10;1.00
26053;DHT22;13826;51.186;4.450;2022-07-06T10:11:55;31.60;1.00
26053;DHT22;13826;51.186;4.450;2022-07-06T10:14:26;31.70;1.00
26053;DHT22;13826;51.186;4.450;2022-07-06T10:16:55;31.70;1.00
26053;DHT22;13826;51.186;4.450;2022-07-06T10:19:21;32.00;1.00
26053;DHT22;13826;51.186;4.450;2022-07-06T10:21:47;30.70;1.00
26053;DHT22;13826;51.186;4.450;2022-07-06T10:24:14;30.60;1.00
26053;DHT22;13826;51.186;4.450;2022-07-06T10:26:40;30.20;1.00
26053;DHT22;13826;51.186;4.450;2022-07-06T10:29:07;30.30;1.00
26053;DHT22;13826;51.186;4.450;2022-07-06T10:31:34;29.90;1.00
26053;DHT22;13826;51.186;4.450;2022-07-06T10:34:03;29.80;1.00
26053;DHT22;13826;51.186;4.450;2022-07-06T10:36:30;29.60;1.00
26053;DHT22;13826;51.186;4.450;2022-07-06T10:38:56;29.70;1.00
26053;DHT22;13826;51.186;4.450;2022-07-06T10:41:33;29.80;1.00
26053;DHT22;13826;51.186;4.450;2022-07-06T10:44:30;30.30;1.00
26053;DHT22;13826;51.186;4.450;2022-07-06T10:46:58;30.60;1.00
26053;DHT22;13826;51.186;4.450;2022-07-06T10:49:26;31.30;1.00
26053;DHT22;13826;51.186;4.450;2022-07-06T10:51:52;31.00;1.00
26053;DHT22;13826;51.186;4.450;2022-07-06T10:54:19;31.50;1.00
26053;DHT22;13826;51.186;4.450;2022-07-06T10:56:50;32.20;1.00
26053;DHT22;13826;51.186;4.450;2022-07-06T10:59:17;33.60;1.00
26053;DHT22;13826;51.186;4.450;2022-07-06T11:04:36;33.20;1.00
26053;DHT22;13826;51.186;4.450;2022-07-06T11:07:08;32.20;1.00
26053;DHT22;13826;51.186;4.450;2022-07-06T11:09:35;31.30;1.00
26053;DHT22;13826;51.186;4.450;2022-07-06T11:12:15;31.00;1.00
26053;DHT22;13826;51.186;4.450;2022-07-06T11:14:42;30.20;1.00
26053;DHT22;13826;51.186;4.450;2022-07-06T11:17:10;29.70;1.00
26053;DHT22;13826;51.186;4.450;2022-07-06T11:19:36;28.80;1.00
26053;DHT22;13826;51.186;4.450;2022-07-06T11:22:09;29.10;1.00
26053;DHT22;13826;51.186;4.450;2022-07-06T11:24:37;29.80;1.00
26053;DHT22;13826;51.186;4.450;2022-07-06T11:27:04;29.10;1.00
26053;DHT22;13826;51.186;4.450;2022-07-06T11:29:30;28.90;1.00
26053;DHT22;13826;51.186;4.450;2022-07-06T11:31:58;28.80;1.00
26053;DHT22;13826;51.186;4.450;2022-07-06T11:34:34;29.00;1.00
26053;DHT22;13826;51.186;4.450;2022-07-06T11:37:05;29.60;1.00
26053;DHT22;13826;51.186;4.450;2022-07-06T11:39:34;29.60;1.00
26053;DHT22;13826;51.186;4.450;2022-07-06T11:42:01;30.30;1.00
26053;DHT22;13826;51.186;4.450;2022-07-06T11:44:29;29.70;1.00
26053;DHT22;13826;51.186;4.450;2022-07-06T11:46:55;29.40;1.00
26053;DHT22;13826;51.186;4.450;2022-07-06T11:49:23;29.50;1.00
26053;DHT22;13826;51.186;4.450;2022-07-06T11:51:49;29.40;1.00
26053;DHT22;13826;51.186;4.450;2022-07-06T11:54:19;29.20;1.00
26053;DHT22;13826;51.186;4.450;2022-07-06T11:56:53;29.10;1.00
26053;DHT22;13826;51.186;4.450;2022-07-06T11:59:24;29.00;1.00
26053;DHT22;13826;51.186;4.450;2022-07-06T12:01:58;28.80;1.00
26053;DHT22;13826;51.186;4.450;2022-07-06T12:04:24;27.90;1.00
26053;DHT22;13826;51.186;4.450;2022-07-06T12:06:49;27.50;1.00
26053;DHT22;13826;51.186;4.450;2022-07-06T12:09:15;27.20;1.00
26053;DHT22;13826;51.186;4.450;2022-07-06T12:11:44;27.10;1.00
26053;DHT22;13826;51.186;4.450;2022-07-06T12:14:17;27.70;1.00
26053;DHT22;13826;51.186;4.450;2022-07-06T12:16:43;28.00;1.00
26053;DHT22;13826;51.186;4.450;2022-07-06T12:19:09;28.00;1.00
26053;DHT22;13826;51.186;4.450;2022-07-06T12:21:45;28.10;1.00
26053;DHT22;13826;51.186;4.450;2022-07-06T12:24:20;27.60;1.00
26053;DHT22;13826;51.186;4.450;2022-07-06T12:26:47;28.00;1.00
26053;DHT22;13826;51.186;4.450;2022-07-06T12:29:13;28.20;1.00
26053;DHT22;13826;51.186;4.450;2022-07-06T12:31:47;28.60;1.00
26053;DHT22;13826;51.186;4.450;2022-07-06T12:34:18;28.60;1.00
26053;DHT22;13826;51.186;4.450;2022-07-06T12:39:14;28.60;1.00
26053;DHT22;13826;51.186;4.450;2022-07-06T12:44:11;28.10;1.00
26053;DHT22;13826;51.186;4.450;2022-07-06T12:46:38;27.70;1.00
26053;DHT22;13826;51.186;4.450;2022-07-06T12:51:53;28.20;1.00
26053;DHT22;13826;51.186;4.450;2022-07-06T12:54:19;27.50;1.00
26053;DHT22;13826;51.186;4.450;2022-07-06T12:59:24;27.40;1.00
26053;DHT22;13826;51.186;4.450;2022-07-06T13:01:51;27.70;1.00
26053;DHT22;13826;51.186;4.450;2022-07-06T13:04:17;27.60;1.00
26053;DHT22;13826;51.186;4.450;2022-07-06T13:06:43;27.40;1.00
26053;DHT22;13826;51.186;4.450;2022-07-06T13:09:08;27.30;1.00
26053;DHT22;13826;51.186;4.450;2022-07-06T13:11:34;27.10;1.00
26053;DHT22;13826;51.186;4.450;2022-07-06T13:14:00;27.70;1.00
26053;DHT22;13826;51.186;4.450;2022-07-06T13:16:25;27.90;1.00
26053;DHT22;13826;51.186;4.450;2022-07-06T13:18:57;27.80;1.00
26053;DHT22;13826;51.186;4.450;2022-07-06T13:21:23;27.50;1.00
26053;DHT22;13826;51.186;4.450;2022-07-06T13:23:48;27.40;1.00
26053;DHT22;13826;51.186;4.450;2022-07-06T13:26:14;27.90;1.00
26053;DHT22;13826;51.186;4.450;2022-07-06T13:28:39;27.70;1.00
26053;DHT22;13826;51.186;4.450;2022-07-06T13:31:05;27.70;1.00
26053;DHT22;13826;51.186;4.450;2022-07-06T13:33:31;27.30;1.00
26053;DHT22;13826;51.186;4.450;2022-07-06T13:35:56;27.60;1.00
26053;DHT22;13826;51.186;4.450;2022-07-06T13:38:22;27.80;1.00
26053;DHT22;13826;51.186;4.450;2022-07-06T13:40:48;27.40;1.00
26053;DHT22;13826;51.186;4.450;2022-07-06T13:43:13;27.10;1.00
26053;DHT22;13826;51.186;4.450;2022-07-06T13:45:39;27.20;1.00
26053;DHT22;13826;51.186;4.450;2022-07-06T13:48:05;27.30;1.00
26053;DHT22;13826;51.186;4.450;2022-07-06T13:50:31;27.40;1.00
26053;DHT22;13826;51.186;4.450;2022-07-06T13:52:58;27.60;1.00
26053;DHT22;13826;51.186;4.450;2022-07-06T13:55:24;27.80;1.00
26053;DHT22;13826;51.186;4.450;2022-07-06T13:57:50;28.00;1.00
26053;DHT22;13826;51.186;4.450;2022-07-06T14:00:16;27.90;1.00
26053;DHT22;13826;51.186;4.450;2022-07-06T14:02:44;27.80;1.00
26053;DHT22;13826;51.186;4.450;2022-07-06T14:05:10;27.80;1.00
26053;DHT22;13826;51.186;4.450;2022-07-06T14:07:36;27.80;1.00
26053;DHT22;13826;51.186;4.450;2022-07-06T14:10:03;27.50;1.00
26053;DHT22;13826;51.186;4.450;2022-07-06T14:12:29;27.70;1.00
26053;DHT22;13826;51.186;4.450;2022-07-06T14:14:55;27.20;1.00
26053;DHT22;13826;51.186;4.450;2022-07-06T14:17:21;27.30;1.00
26053;DHT22;13826;51.186;4.450;2022-07-06T14:19:48;27.40;1.00
26053;DHT22;13826;51.186;4.450;2022-07-06T14:22:14;27.10;1.00
26053;DHT22;13826;51.186;4.450;2022-07-06T14:24:40;27.00;1.00
26053;DHT22;13826;51.186;4.450;2022-07-06T14:27:06;26.80;1.00
26053;DHT22;13826;51.186;4.450;2022-07-06T14:29:32;26.70;1.00
26053;DHT22;13826;51.186;4.450;2022-07-06T14:31:58;27.10;1.00
26053;DHT22;13826;51.186;4.450;2022-07-06T14:34:23;27.70;1.00
26053;DHT22;13826;51.186;4.450;2022-07-06T14:36:50;28.00;1.00
26053;DHT22;13826;51.186;4.450;2022-07-06T14:39:16;27.60;1.00
26053;DHT22;13826;51.186;4.450;2022-07-06T14:41:42;27.50;1.00
26053;DHT22;13826;51.186;4.450;2022-07-06T14:44:08;27.60;1.00
26053;DHT22;13826;51.186;4.450;2022-07-06T14:46:33;27.80;1.00
26053;DHT22;13826;51.186;4.450;2022-07-06T14:49:00;27.40;1.00
26053;DHT22;13826;51.186;4.450;2022-07-06T14:51:26;27.30;1.00
26053;DHT22;13826;51.186;4.450;2022-07-06T14:53:52;27.50;1.00
26053;DHT22;13826;51.186;4.450;2022-07-06T14:56:17;27.30;1.00
26053;DHT22;13826;51.186;4.450;2022-07-06T14:58:43;27.30;1.00
26053;DHT22;13826;51.186;4.450;2022-07-06T15:01:10;27.30;1.00
26053;DHT22;13826;51.186;4.450;2022-07-06T15:03:35;27.30;1.00
26053;DHT22;13826;51.186;4.450;2022-07-06T15:06:01;27.20;1.00
26053;DHT22;13826;51.186;4.450;2022-07-06T15:08:26;27.10;1.00
26053;DHT22;13826;51.186;4.450;2022-07-06T15:10:52;26.40;1.00
26053;DHT22;13826;51.186;4.450;2022-07-06T15:13:18;26.10;1.00
26053;DHT22;13826;51.186;4.450;2022-07-06T15:15:44;26.30;1.00
26053;DHT22;13826;51.186;4.450;2022-07-06T15:18:10;26.30;1.00
26053;DHT22;13826;51.186;4.450;2022-07-06T15:20:35;26.40;1.00
26053;DHT22;13826;51.186;4.450;2022-07-06T15:23:01;26.80;1.00
26053;DHT22;13826;51.186;4.450;2022-07-06T15:25:27;27.00;1.00
26053;DHT22;13826;51.186;4.450;2022-07-06T15:27:52;27.30;1.00
26053;DHT22;13826;51.186;4.450;2022-07-06T15:30:18;27.00;1.00
26053;DHT22;13826;51.186;4.450;2022-07-06T15:32:44;26.70;1.00
26053;DHT22;13826;51.186;4.450;2022-07-06T15:35:10;26.60;1.00
26053;DHT22;13826;51.186;4.450;2022-07-06T15:37:36;26.60;1.00
26053;DHT22;13826;51.186;4.450;2022-07-06T15:40:11;26.70;1.00
26053;DHT22;13826;51.186;4.450;2022-07-06T15:42:39;26.90;1.00
26053;DHT22;13826;51.186;4.450;2022-07-06T15:45:06;27.00;1.00
26053;DHT22;13826;51.186;4.450;2022-07-06T15:47:32;27.40;1.00
26053;DHT22;13826;51.186;4.450;2022-07-06T15:49:57;27.40;1.00
26053;DHT22;13826;51.186;4.450;2022-07-06T15:52:23;27.50;1.00
26053;DHT22;13826;51.186;4.450;2022-07-06T15:54:49;27.70;1.00
26053;DHT22;13826;51.186;4.450;2022-07-06T15:57:15;27.30;1.00